Time;durP1;ratioP1;P1;durP2;ratioP2;P2;SDS_P1;SDS_P2;PMS_P1;PMS_P2;Temp;Humidity;BMP_temperature;BMP_pressure;BME280_temperature;BME280_humidity;BME280_pressure;Samples;Min_cycle;Max_cycle;Signal;HPM_P1;HPM_P2
2021/07/24 00:03:45;;;;;;;6.70;5.57;;;;;;;18.77;100.00;100893.76;1843828;77;86221;-74
2021/07/24 00:09:09;;;;;;;8.43;5.30;;;;;;;18.86;100.00;100838.25;1956303;72;39629;-70
2021/07/24 00:14:34;;;;;;;6.90;5.67;;;;;;;18.83;100.00;100888.16;1911292;72;39618;-75
2021/07/24 00:19:59;;;;;;;7.07;5.60;;;;;;;18.67;100.00;100880.06;1824033;77;85599;-72
2021/07/24 00:25:42;;;;;;;8.37;6.07;;;;;;;18.78;100.00;100908.91;1954097;72;39659;-74
2021/07/24 00:31:16;;;;;;;8.77;6.13;;;;;;;18.74;100.00;100914.94;1830753;78;85528;-72
2021/07/24 00:36:58;;;;;;;8.67;5.43;;;;;;;18.73;100.00;100963.97;1905711;74;86282;-72
2021/07/24 00:42:54;;;;;;;6.27;5.67;;;;;;;18.77;100.00;100941.02;1889238;76;86566;-75
2021/07/24 00:48:27;;;;;;;8.13;5.93;;;;;;;18.85;100.00;100963.25;1927697;72;39838;-75
2021/07/24 00:53:51;;;;;;;8.33;5.77;;;;;;;18.67;100.00;100961.66;1835400;77;86741;-72
2021/07/24 00:59:40;;;;;;;7.57;5.50;;;;;;;18.83;100.00;100987.50;1874106;74;39734;-74
2021/07/24 01:05:07;;;;;;;7.37;5.07;;;;;;;18.90;100.00;100972.34;1831213;76;85791;-72
2021/07/24 01:10:33;;;;;;;7.23;5.70;;;;;;;18.98;100.00;100980.49;1924324;72;39577;-72
2021/07/24 01:15:58;;;;;;;7.47;5.50;;;;;;;18.89;100.00;100991.79;1868120;75;86445;-75
2021/07/24 01:21:26;;;;;;;10.60;6.20;;;;;;;18.88;100.00;100979.45;1957064;72;39584;-75
2021/07/24 01:26:49;;;;;;;7.17;5.47;;;;;;;18.90;100.00;100974.33;1808783;78;86499;-75
2021/07/24 01:32:15;;;;;;;8.30;5.47;;;;;;;18.74;100.00;100959.97;1930840;73;39651;-75
2021/07/24 01:37:41;;;;;;;7.67;5.40;;;;;;;18.87;100.00;100969.37;1843769;76;86574;-72
2021/07/24 01:43:07;;;;;;;6.20;5.47;;;;;;;18.74;100.00;100959.17;1934643;72;39416;-75
2021/07/24 01:48:36;;;;;;;8.37;5.53;;;;;;;18.81;100.00;100953.25;1943583;72;39595;-75
2021/07/24 01:54:04;;;;;;;6.53;4.77;;;;;;;18.80;100.00;100966.24;1880169;74;86148;-72
2021/07/24 01:59:33;;;;;;;8.40;5.60;;;;;;;18.80;100.00;100943.16;1923640;72;39633;-72
2021/07/24 02:05:01;;;;;;;9.57;5.67;;;;;;;18.69;100.00;100906.72;1782857;79;86209;-75
2021/07/24 02:10:26;;;;;;;7.53;5.73;;;;;;;18.70;100.00;100898.49;1953574;73;39653;-72
2021/07/24 02:15:53;;;;;;;8.47;5.13;;;;;;;18.67;100.00;100901.16;1886113;75;86149;-72
2021/07/24 02:21:18;;;;;;;8.17;5.63;;;;;;;18.69;100.00;100897.44;1954771;72;39765;-75
2021/07/24 02:26:44;;;;;;;7.97;6.37;;;;;;;18.70;100.00;100896.29;1858437;76;86097;-72
2021/07/24 02:32:09;;;;;;;8.00;5.80;;;;;;;18.69;100.00;100895.46;1933999;72;39719;-72
2021/07/24 02:37:34;;;;;;;9.47;5.60;;;;;;;18.67;100.00;100857.55;1952605;72;39406;-75
2021/07/24 02:42:59;;;;;;;9.63;5.40;;;;;;;18.53;100.00;100840.91;1803781;75;86338;-72
2021/07/24 02:48:23;;;;;;;8.67;6.37;;;;;;;18.61;100.00;100871.01;1954018;72;39476;-72
2021/07/24 02:53:48;;;;;;;7.53;5.73;;;;;;;18.73;100.00;100870.28;1829349;77;86358;-75
2021/07/24 02:59:14;;;;;;;9.37;6.13;;;;;;;18.54;100.00;100851.00;1955244;72;39741;-75
2021/07/24 03:04:42;;;;;;;7.83;5.87;;;;;;;18.45;100.00;100837.52;1843831;77;86215;-72
2021/07/24 03:10:28;;;;;;;8.77;5.83;;;;;;;18.48;100.00;100836.87;1954516;73;39594;-72
2021/07/24 03:16:12;;;;;;;8.20;6.03;;;;;;;18.45;100.00;100812.20;1914300;74;86532;-72
2021/07/24 03:21:53;;;;;;;7.53;5.63;;;;;;;18.46;100.00;100772.50;1888929;75;86335;-72
2021/07/24 03:27:22;;;;;;;7.47;5.63;;;;;;;18.28;100.00;100766.72;1954056;73;39566;-72
2021/07/24 03:32:53;;;;;;;7.13;5.83;;;;;;;18.31;100.00;100782.94;1834749;77;86037;-74
2021/07/24 03:38:19;;;;;;;6.67;5.37;;;;;;;18.31;100.00;100784.92;1946141;72;39574;-75
2021/07/24 03:43:44;;;;;;;9.20;6.33;;;;;;;18.27;100.00;100811.47;1848861;76;86498;-75
2021/07/24 03:49:12;;;;;;;8.77;6.23;;;;;;;18.38;100.00;100828.22;1932699;72;39740;-75
2021/07/24 03:54:36;;;;;;;7.43;6.10;;;;;;;18.40;100.00;100820.86;1904745;72;40219;-75
2021/07/24 04:00:04;;;;;;;8.33;6.70;;;;;;;18.42;100.00;100832.00;1882561;75;86534;-75
2021/07/24 04:05:34;;;;;;;10.77;6.37;;;;;;;18.41;100.00;100815.45;1939030;72;39611;-72
2021/07/24 04:10:58;;;;;;;8.13;6.33;;;;;;;18.35;100.00;100817.66;1861294;73;86284;-73
2021/07/24 04:16:23;;;;;;;9.57;5.77;;;;;;;18.30;100.00;100817.84;1912550;73;39497;-74
2021/07/24 04:21:47;;;;;;;8.23;6.50;;;;;;;18.43;100.00;100842.67;1903093;73;85610;-75
2021/07/24 04:27:11;;;;;;;8.67;6.30;;;;;;;18.30;100.00;100837.52;1956126;72;39450;-72
2021/07/24 04:32:39;;;;;;;8.80;6.50;;;;;;;18.42;100.00;100819.34;1857889;75;86335;-72
2021/07/24 04:38:06;;;;;;;9.33;7.13;;;;;;;18.51;100.00;100803.83;1916865;72;39871;-71
2021/07/24 04:43:33;;;;;;;9.93;7.93;;;;;;;18.50;100.00;100818.48;1911381;73;39496;-71
2021/07/24 04:48:57;;;;;;;11.13;7.50;;;;;;;18.59;100.00;100846.02;1755552;81;86348;-75
2021/07/24 04:54:22;;;;;;;11.47;7.57;;;;;;;18.60;100.00;100845.44;1954082;72;39789;-71
2021/07/24 04:59:47;;;;;;;9.20;7.00;;;;;;;18.58;100.00;100861.81;1882715;75;85452;-71
2021/07/24 05:05:13;;;;;;;8.70;6.97;;;;;;;18.64;100.00;100864.69;1956026;72;39467;-76
2021/07/24 05:10:40;;;;;;;11.57;7.87;;;;;;;18.57;100.00;100860.98;1843922;77;86430;-72
2021/07/24 05:16:05;;;;;;;11.87;6.90;;;;;;;18.59;100.00;100867.69;1849620;75;86475;-76
2021/07/24 05:21:29;;;;;;;11.53;7.33;;;;;;;18.55;100.00;100860.52;1928891;72;39551;-76
2021/07/24 05:26:53;;;;;;;8.33;7.33;;;;;;;18.49;100.00;100852.56;1882808;75;85963;-76
2021/07/24 05:32:17;;;;;;;8.97;7.77;;;;;;;18.48;100.00;100841.09;1954712;72;39610;-70
2021/07/24 05:37:42;;;;;;;10.40;7.30;;;;;;;18.47;100.00;100807.91;1843911;76;86821;-71
2021/07/24 05:43:07;;;;;;;11.03;7.93;;;;;;;18.50;100.00;100797.95;1949224;72;40552;-75
2021/07/24 05:48:32;;;;;;;11.67;8.20;;;;;;;18.48;100.00;100789.05;1952915;72;39569;-75
2021/07/24 05:54:02;;;;;;;12.90;8.60;;;;;;;18.50;100.00;100815.66;1782900;78;86849;-76
2021/07/24 05:59:27;;;;;;;14.00;8.83;;;;;;;18.56;100.00;100819.15;1926549;72;39559;-71
2021/07/24 06:04:52;;;;;;;11.03;8.47;;;;;;;18.39;100.00;100808.78;1882886;75;86255;-72
2021/07/24 06:10:17;;;;;;;12.23;8.57;;;;;;;18.48;100.00;100818.59;1954710;72;39476;-77
2021/07/24 06:15:46;;;;;;;13.97;8.63;;;;;;;18.60;100.00;100813.08;1849011;76;86453;-71
2021/07/24 06:21:16;;;;;;;13.10;9.33;;;;;;;18.54;100.00;100825.68;1962048;72;39567;-75
2021/07/24 06:26:40;;;;;;;11.63;9.07;;;;;;;18.54;100.00;100825.10;1843785;77;86742;-72
2021/07/24 06:34:53;;;;;;;10.30;8.93;;;;;;;18.52;100.00;100798.45;1916538;73;86413;-71
2021/07/24 06:37:23;;;;;;;11.55;9.08;;;;;;;18.62;100.00;100812.14;1783815;77;936535;-76
2021/07/24 06:39:54;;;;;;;11.93;9.40;;;;;;;18.62;100.00;100825.63;1795488;77;938626;-71
2021/07/24 06:42:24;;;;;;;13.15;8.75;;;;;;;18.64;100.00;100830.93;1820553;76;938732;-71
2021/07/24 06:44:55;;;;;;;13.47;9.37;;;;;;;18.61;100.00;100845.08;1864835;75;938651;-71
2021/07/24 06:47:25;;;;;;;14.10;9.80;;;;;;;18.52;100.00;100851.91;1819211;76;938824;-76
2021/07/24 06:49:55;;;;;;;14.03;9.43;;;;;;;18.53;100.00;100859.19;1859273;76;938929;-71
2021/07/24 06:52:25;;;;;;;13.43;9.97;;;;;;;18.50;100.00;100869.11;1831132;75;938672;-71
2021/07/24 06:54:55;;;;;;;11.57;8.77;;;;;;;18.57;100.00;100871.41;1859304;76;938634;-76
2021/07/24 06:57:25;;;;;;;12.55;9.35;;;;;;;18.53;100.00;100874.08;1854087;75;938855;-75
2021/07/24 06:59:55;;;;;;;14.90;9.97;;;;;;;18.52;100.00;100877.22;1859251;76;938694;-76
2021/07/24 07:02:36;;;;;;;15.77;10.57;;;;;;;18.52;100.00;100868.23;1847118;76;938944;-71
2021/07/24 07:05:07;;;;;;;11.70;9.03;;;;;;;18.60;100.00;100868.77;1859276;76;938803;-71
2021/07/24 07:07:37;;;;;;;15.63;9.93;;;;;;;18.67;100.00;100858.38;1847045;76;938893;-72
2021/07/24 07:10:10;;;;;;;13.13;10.47;;;;;;;18.48;100.00;100855.95;1866356;75;936757;-71
2021/07/24 07:12:40;;;;;;;12.13;9.40;;;;;;;18.54;100.00;100839.75;1833164;76;940930;-69
2021/07/24 07:15:12;;;;;;;12.73;9.97;;;;;;;18.63;100.00;100832.09;1859296;76;936784;-71
2021/07/24 07:17:44;;;;;;;10.90;9.57;;;;;;;18.64;100.00;100823.90;1866383;75;938789;-71
2021/07/24 07:20:14;;;;;;;12.03;9.27;;;;;;;18.55;100.00;100830.98;1847073;76;938752;-72
2021/07/24 07:25:40;;;;;;;14.53;9.60;;;;;;;18.69;100.00;100813.86;1843896;76;86517;-73
2021/07/24 07:31:04;;;;;;;14.70;10.20;;;;;;;18.73;100.00;100795.12;1882601;74;85674;-75
2021/07/24 07:36:29;;;;;;;15.10;10.63;;;;;;;18.83;100.00;100795.28;1929899;73;39525;-72
2021/07/24 07:41:54;;;;;;;15.03;10.07;;;;;;;18.91;100.00;100797.23;1896061;73;85474;-75
2021/07/24 07:47:18;;;;;;;12.47;10.17;;;;;;;18.91;100.00;100809.30;1929322;72;39567;-71
2021/07/24 07:52:43;;;;;;;13.70;10.03;;;;;;;19.07;100.00;100804.73;1893746;75;86627;-72
2021/07/24 07:58:19;;;;;;;12.43;10.07;;;;;;;19.07;100.00;100815.98;1956553;72;39501;-75
2021/07/24 08:03:43;;;;;;;15.20;11.27;;;;;;;19.00;100.00;100802.19;1889332;75;86408;-73
2021/07/24 08:09:08;;;;;;;16.37;10.40;;;;;;;19.06;100.00;100785.34;1916057;73;39641;-74
2021/07/24 08:14:33;;;;;;;12.93;11.07;;;;;;;19.42;100.00;100784.70;1924300;72;39554;-70
2021/07/24 08:19:57;;;;;;;11.53;10.00;;;;;;;19.67;100.00;100778.01;1895991;73;86773;-70
2021/07/24 08:25:21;;;;;;;13.37;10.37;;;;;;;19.82;100.00;100784.95;1954153;72;39798;-74
2021/07/24 08:30:52;;;;;;;13.40;10.97;;;;;;;19.72;100.00;100799.52;1845674;76;85643;-71
2021/07/24 08:36:20;;;;;;;12.83;10.40;;;;;;;19.71;100.00;100797.28;1954681;72;39641;-76
2021/07/24 08:41:45;;;;;;;13.67;10.90;;;;;;;19.61;100.00;100779.97;1843779;77;86646;-78
2021/07/24 08:47:09;;;;;;;12.47;10.67;;;;;;;19.55;100.00;100785.81;1971852;73;30960;-71
2021/07/24 08:52:35;;;;;;;11.90;10.60;;;;;;;19.52;100.00;100777.24;1971738;72;30947;-76
2021/07/24 08:58:02;;;;;;;13.70;10.83;;;;;;;19.67;100.00;100768.73;1971798;72;30959;-71
2021/07/24 09:03:29;;;;;;;13.97;9.77;;;;;;;19.91;100.00;100756.08;1971892;72;31577;-75
2021/07/24 09:08:55;;;;;;;11.13;9.60;;;;;;;19.74;100.00;100774.61;1971818;73;33491;-71
2021/07/24 09:14:20;;;;;;;11.10;9.80;;;;;;;19.66;100.00;100772.13;1971675;72;31059;-71
2021/07/24 09:19:47;;;;;;;13.20;9.53;;;;;;;19.73;100.00;100783.64;1971670;73;31023;-71
2021/07/24 09:25:25;;;;;;;12.80;9.97;;;;;;;19.66;100.00;100789.62;1971819;72;31511;-71
2021/07/24 09:30:51;;;;;;;11.70;10.50;;;;;;;19.52;100.00;100804.83;1971668;73;30930;-76
2021/07/24 09:36:21;;;;;;;15.20;10.33;;;;;;;19.49;100.00;100812.58;1971580;73;30949;-75
2021/07/24 09:41:49;;;;;;;17.47;12.17;;;;;;;19.57;100.00;100799.57;1971671;72;31021;-70
2021/07/24 09:47:30;;;;;;;16.43;12.93;;;;;;;19.58;100.00;100794.19;1971640;72;30959;-69
2021/07/24 09:53:08;;;;;;;15.70;12.57;;;;;;;19.70;100.00;100789.16;1971771;72;31055;-72
2021/07/24 09:58:35;;;;;;;14.10;12.20;;;;;;;19.96;100.00;100798.16;1971880;72;31505;-74
2021/07/24 10:04:05;;;;;;;13.27;11.47;;;;;;;20.09;100.00;100780.66;1971796;72;31472;-75
2021/07/24 10:09:41;;;;;;;15.87;11.67;;;;;;;20.39;100.00;100778.72;1971733;72;31088;-73
2021/07/24 10:15:11;;;;;;;14.70;12.77;;;;;;;20.56;100.00;100792.34;1971991;72;31496;-72
2021/07/24 10:20:39;;;;;;;15.37;11.97;;;;;;;20.62;100.00;100796.58;1971798;73;31068;-72
2021/07/24 10:26:11;;;;;;;14.83;11.53;;;;;;;20.32;100.00;100798.83;1971809;72;31050;-72
2021/07/24 10:31:46;;;;;;;17.93;12.70;;;;;;;20.76;100.00;100797.02;1971715;72;30960;-72
2021/07/24 10:37:33;;;;;;;16.70;13.43;;;;;;;20.65;100.00;100798.69;1971949;72;31483;-72
2021/07/24 10:44:01;;;;;;;15.63;12.57;;;;;;;20.49;100.00;100797.77;1971716;72;30974;-70
2021/07/24 10:47:07;;;;;;;16.10;14.40;;;;;;;20.48;100.00;100803.99;1947320;73;24120;-72
2021/07/24 10:53:16;;;;;;;19.87;15.10;;;;;;;20.54;100.00;100799.73;1971791;72;30976;-72
2021/07/24 10:59:02;;;;;;;19.73;14.37;;;;;;;20.59;100.00;100797.27;1971612;73;30967;-72
2021/07/24 11:04:43;;;;;;;21.17;16.73;;;;;;;20.50;100.00;100794.57;1971785;72;30979;-72
2021/07/24 11:10:35;;;;;;;23.37;18.00;;;;;;;20.40;100.00;100799.30;1971985;72;30976;-70
2021/07/24 11:15:59;;;;;;;21.37;18.10;;;;;;;20.33;100.00;100799.86;1971690;73;31060;-72
2021/07/24 11:21:46;;;;;;;23.70;18.07;;;;;;;20.31;100.00;100796.59;1971672;72;31110;-73
2021/07/24 11:27:09;;;;;;;25.17;18.73;;;;;;;20.40;100.00;100793.65;1971913;72;33430;-71
2021/07/24 11:32:36;;;;;;;22.37;19.27;;;;;;;20.53;100.00;100793.06;1971745;72;30949;-73
2021/07/24 11:38:03;;;;;;;25.77;20.07;;;;;;;20.65;100.00;100797.27;1971783;72;31055;-73
2021/07/24 11:43:28;;;;;;;25.00;20.13;;;;;;;20.67;100.00;100799.14;1971795;73;30971;-70
2021/07/24 11:49:19;;;;;;;22.93;18.43;;;;;;;20.65;100.00;100795.28;1971682;72;30961;-71
2021/07/24 11:54:45;;;;;;;22.97;19.47;;;;;;;20.66;100.00;100797.52;1971655;73;31025;-72
2021/07/24 12:00:12;;;;;;;23.93;20.67;;;;;;;20.65;100.00;100786.81;1971619;73;31003;-72
2021/07/24 12:05:37;;;;;;;22.97;19.67;;;;;;;21.01;100.00;100790.14;1971752;73;31028;-70
2021/07/24 12:11:03;;;;;;;22.20;19.87;;;;;;;20.84;100.00;100802.53;1971710;72;30973;-70
2021/07/24 12:16:37;;;;;;;23.80;19.63;;;;;;;20.84;100.00;100803.12;1971654;73;31133;-71
2021/07/24 12:22:21;;;;;;;24.67;18.90;;;;;;;20.92;100.00;100799.36;1949274;72;31038;-72
2021/07/24 12:28:06;;;;;;;23.57;21.07;;;;;;;20.86;100.00;100803.02;1939612;73;30980;-70
2021/07/24 12:36:53;;;;;;;26.83;21.10;;;;;;;21.08;100.00;100805.08;1941342;74;30824;-72
2021/07/24 12:39:27;;;;;;;24.57;20.83;;;;;;;20.87;100.00;100813.72;1849026;77;24297;-73
2021/07/24 12:42:01;;;;;;;27.13;22.37;;;;;;;20.95;100.00;100813.34;1849049;77;24662;-72
2021/07/24 12:44:58;;;;;;;26.87;22.47;;;;;;;20.92;100.00;100816.31;1849183;77;24163;-72
2021/07/24 12:47:42;;;;;;;26.70;23.07;;;;;;;20.98;100.00;100815.45;1849080;77;24218;-70
2021/07/24 12:50:24;;;;;;;31.70;23.90;;;;;;;20.87;100.00;100812.31;1917726;75;24633;-72
2021/07/24 12:56:07;;;;;;;30.83;25.17;;;;;;;21.18;100.00;100812.48;1971642;72;31558;-72
2021/07/24 13:01:45;;;;;;;30.08;26.85;;;;;;;21.33;100.00;100808.92;1974769;72;30963;-73
2021/07/24 13:07:15;;;;;;;31.60;28.38;;;;;;;21.55;100.00;100812.36;1971653;72;31032;-73
2021/07/24 13:12:44;;;;;;;35.80;30.57;;;;;;;21.77;100.00;100806.13;1972142;72;30983;-69
2021/07/24 13:18:14;;;;;;;28.32;24.02;;;;;;;22.16;100.00;100792.45;1971887;73;31417;-72
2021/07/24 13:23:59;;;;;;;31.20;27.07;;;;;;;22.47;100.00;100792.21;1971876;72;31128;-70
2021/07/24 13:29:35;;;;;;;34.00;30.43;;;;;;;22.16;100.00;100793.08;1971904;72;31484;-69
2021/07/24 13:35:16;;;;;;;33.50;29.82;;;;;;;22.10;100.00;100796.76;1971853;72;31110;-73
2021/07/24 13:40:45;;;;;;;31.30;27.98;;;;;;;22.13;100.00;100792.36;1971708;72;31058;-68
2021/07/24 13:46:10;;;;;;;31.60;27.52;;;;;;;22.09;100.00;100792.28;1971713;73;30941;-70
2021/07/24 13:51:51;;;;;;;33.60;29.45;;;;;;;22.00;100.00;100797.28;1971744;72;30938;-70
2021/07/24 13:57:28;;;;;;;33.92;28.12;;;;;;;21.94;100.00;100787.45;1971967;72;31527;-72
2021/07/24 14:03:10;;;;;;;31.25;26.97;;;;;;;22.33;100.00;100784.22;1971739;72;31027;-70
2021/07/24 14:08:32;;;;;;;27.63;24.83;;;;;;;22.55;100.00;100772.20;1971900;72;30974;-72
2021/07/24 14:13:57;;;;;;;28.73;25.67;;;;;;;22.49;100.00;100762.37;1971600;73;30929;-71
2021/07/24 14:19:21;;;;;;;28.45;24.32;;;;;;;22.69;100.00;100762.67;1971640;72;31088;-70
2021/07/24 14:24:54;;;;;;;28.80;25.45;;;;;;;22.90;100.00;100753.00;1971805;73;31501;-70
2021/07/24 14:30:19;;;;;;;26.50;23.67;;;;;;;23.00;100.00;100746.77;1971855;73;31024;-72
2021/07/24 14:35:43;;;;;;;24.50;21.90;;;;;;;23.17;100.00;100756.24;1971878;73;31423;-69
2021/07/24 14:41:10;;;;;;;27.70;24.82;;;;;;;23.23;100.00;100743.43;1971743;73;31048;-69
2021/07/24 14:46:35;;;;;;;25.65;23.07;;;;;;;23.39;100.00;100744.16;1971879;73;31514;-71
2021/07/24 14:51:59;;;;;;;24.12;21.62;;;;;;;23.41;100.00;100747.42;1971705;72;31061;-72
2021/07/24 14:57:31;;;;;;;24.18;21.62;;;;;;;23.24;100.00;100743.62;1971691;72;30955;-71
2021/07/24 15:03:10;;;;;;;23.38;20.88;;;;;;;23.47;100.00;100746.56;1971651;72;31020;-73
2021/07/24 15:08:36;;;;;;;23.52;21.12;;;;;;;23.59;100.00;100743.55;1971690;72;31027;-72
2021/07/24 15:14:02;;;;;;;25.25;21.05;;;;;;;23.81;100.00;100733.43;1971907;73;31055;-71
2021/07/24 15:19:26;;;;;;;21.07;18.65;;;;;;;23.73;100.00;100733.08;1971740;73;30956;-74
2021/07/24 15:24:51;;;;;;;20.92;18.82;;;;;;;23.69;100.00;100729.36;1971846;72;31494;-72
2021/07/24 15:30:16;;;;;;;20.90;18.85;;;;;;;23.58;100.00;100727.14;1971784;72;30986;-79
2021/07/24 15:35:41;;;;;;;20.80;18.52;;;;;;;23.55;100.00;100725.06;1972433;72;31482;-76
2021/07/24 15:41:07;;;;;;;24.20;19.42;;;;;;;23.50;100.00;100718.27;1971795;72;31006;-75
2021/07/24 15:46:32;;;;;;;21.97;19.42;;;;;;;23.56;100.00;100713.95;1971797;73;31012;-68
2021/07/24 15:51:57;;;;;;;22.25;19.55;;;;;;;23.59;100.00;100715.20;1972023;72;31448;-68
2021/07/24 15:57:21;;;;;;;21.20;19.10;;;;;;;23.51;100.00;100702.09;1971883;73;30946;-72
2021/07/24 16:02:46;;;;;;;21.40;19.15;;;;;;;23.47;100.00;100696.35;1971725;73;31039;-68
2021/07/24 16:08:11;;;;;;;22.35;18.30;;;;;;;23.46;100.00;100697.55;1971619;73;30950;-74
2021/07/24 16:13:36;;;;;;;21.50;19.27;;;;;;;23.52;100.00;100686.12;1971761;72;31108;-74
2021/07/24 16:19:02;;;;;;;20.95;18.37;;;;;;;23.53;100.00;100684.91;1971863;72;31452;-74
2021/07/24 16:24:28;;;;;;;20.30;18.17;;;;;;;23.61;100.00;100686.48;1972056;72;31045;-69
2021/07/24 16:30:04;;;;;;;20.35;17.65;;;;;;;23.63;100.00;100686.90;1971655;73;30973;-72
2021/07/24 16:35:20;;;;;;;21.02;18.55;;;;;;;23.62;100.00;100690.95;1971670;73;30977;-69
2021/07/24 16:40:44;;;;;;;21.52;19.35;;;;;;;23.59;100.00;100686.25;1971701;73;31034;-72
2021/07/24 16:46:09;;;;;;;21.25;18.95;;;;;;;23.58;100.00;100686.02;1971853;72;31032;-69
2021/07/24 16:51:35;;;;;;;21.57;19.27;;;;;;;23.63;100.00;100676.97;1971988;73;31559;-70
2021/07/24 16:56:59;;;;;;;22.60;19.17;;;;;;;23.57;100.00;100665.14;1971743;72;30951;-71
2021/07/24 17:02:25;;;;;;;21.17;18.23;;;;;;;23.51;100.00;100659.55;1971693;73;31030;-71
2021/07/24 17:07:50;;;;;;;21.93;19.45;;;;;;;23.61;100.00;100666.63;1971696;72;30959;-70
2021/07/24 17:13:19;;;;;;;21.25;18.98;;;;;;;23.61;100.00;100659.53;1971791;72;30957;-72
2021/07/24 17:18:44;;;;;;;19.87;17.80;;;;;;;23.56;100.00;100661.48;1971718;73;30939;-72
2021/07/24 17:24:09;;;;;;;25.52;17.37;;;;;;;23.68;100.00;100662.48;1971635;73;30973;-72
2021/07/24 17:29:34;;;;;;;19.40;17.52;;;;;;;23.78;100.00;100663.28;1971782;72;31039;-73
2021/07/24 17:35:01;;;;;;;18.62;16.73;;;;;;;23.70;100.00;100658.69;1971789;73;31061;-73
2021/07/24 17:40:25;;;;;;;20.15;16.75;;;;;;;23.67;100.00;100655.98;1971962;72;31448;-72
2021/07/24 17:45:50;;;;;;;17.73;15.93;;;;;;;23.75;100.00;100651.25;1971598;72;30972;-73
2021/07/24 17:51:19;;;;;;;19.17;17.30;;;;;;;23.59;100.00;100647.96;1971690;73;31036;-74
2021/07/24 17:56:44;;;;;;;16.25;14.65;;;;;;;23.45;100.00;100636.36;1971849;73;31433;-70
2021/07/24 18:02:09;;;;;;;16.02;14.43;;;;;;;23.43;100.00;100634.52;1971757;72;30972;-73
2021/07/24 18:07:35;;;;;;;16.50;14.90;;;;;;;23.30;100.00;100626.53;1972144;72;31594;-70
2021/07/24 18:13:02;;;;;;;17.65;15.28;;;;;;;23.22;100.00;100631.84;1971803;72;31496;-69
2021/07/24 18:18:26;;;;;;;17.50;15.78;;;;;;;23.23;100.00;100638.56;1971867;72;30980;-69
2021/07/24 18:23:51;;;;;;;16.42;14.95;;;;;;;23.08;100.00;100641.71;1971658;72;31179;-70
2021/07/24 18:29:17;;;;;;;18.45;16.65;;;;;;;23.06;100.00;100650.37;1971939;73;31064;-72
2021/07/24 18:34:42;;;;;;;18.37;16.55;;;;;;;23.09;100.00;100641.12;1971919;72;31504;-73
2021/07/24 18:40:09;;;;;;;21.37;16.30;;;;;;;23.13;100.00;100651.92;1972028;72;30971;-72
2021/07/24 18:45:34;;;;;;;23.47;20.90;;;;;;;23.55;100.00;100665.52;1972018;73;30935;-77
2021/07/24 18:50:59;;;;;;;27.02;22.75;;;;;;;22.49;100.00;100683.11;1971919;73;31450;-72
2021/07/24 18:56:23;;;;;;;28.07;24.87;;;;;;;21.90;100.00;100693.76;1971826;73;31462;-70
2021/07/24 19:01:55;;;;;;;34.27;27.82;;;;;;;21.93;100.00;100705.78;1971852;73;31589;-73
2021/07/24 19:07:40;;;;;;;29.18;25.10;;;;;;;21.76;100.00;100709.17;1947466;74;31011;-72
2021/07/24 19:13:07;;;;;;;28.67;25.40;;;;;;;21.62;100.00;100710.78;1971873;73;31438;-73
2021/07/24 19:18:31;;;;;;;30.72;27.37;;;;;;;21.38;100.00;100717.42;1971738;73;31073;-73
2021/07/24 19:24:15;;;;;;;25.60;22.90;;;;;;;21.14;100.00;100707.63;1947495;74;31042;-71
2021/07/24 19:29:48;;;;;;;26.23;23.42;;;;;;;20.84;100.00;100716.42;1971843;72;30969;-72
2021/07/24 19:35:16;;;;;;;26.55;23.80;;;;;;;20.61;100.00;100709.67;1972032;72;31534;-72
2021/07/24 19:40:55;;;;;;;27.30;24.40;;;;;;;20.96;100.00;100706.28;1972097;72;31473;-70
2021/07/24 19:46:21;;;;;;;28.30;24.27;;;;;;;20.65;100.00;100712.02;1971891;72;30949;-68
2021/07/24 19:51:45;;;;;;;33.90;29.00;;;;;;;20.60;100.00;100717.08;1971830;73;31032;-71
2021/07/24 19:57:10;;;;;;;39.77;32.47;;;;;;;20.61;100.00;100723.78;1972150;72;31508;-69
2021/07/24 20:02:34;;;;;;;41.97;35.07;;;;;;;20.45;100.00;100726.50;1971897;73;31437;-73
2021/07/24 20:08:01;;;;;;;45.60;38.57;;;;;;;20.30;100.00;100737.69;1971995;72;31054;-74
2021/07/24 20:13:25;;;;;;;48.23;38.77;;;;;;;20.31;100.00;100733.11;1971668;73;31053;-76
2021/07/24 20:18:50;;;;;;;45.00;36.67;;;;;;;20.28;100.00;100747.08;1971983;72;31536;-69
2021/07/24 20:24:10;;;;;;;45.73;37.67;;;;;;;20.20;100.00;100748.81;1954995;73;31194;-69
2021/07/24 20:26:41;;;;;;;47.77;38.47;;;;;;;20.17;100.00;100762.22;1927573;74;24114;-66
2021/07/24 20:29:11;;;;;;;51.37;38.60;;;;;;;20.12;100.00;100765.85;1927473;74;24151;-67
2021/07/24 20:31:41;;;;;;;51.60;39.63;;;;;;;20.14;100.00;100770.56;1927507;74;24122;-73
2021/07/24 20:34:12;;;;;;;47.57;39.07;;;;;;;20.21;100.00;100765.16;1927501;74;24113;-71
2021/07/24 20:36:42;;;;;;;52.10;38.83;;;;;;;20.30;100.00;100761.66;1927632;74;24178;-71
2021/07/24 20:39:14;;;;;;;53.17;38.80;;;;;;;20.31;100.00;100768.38;1927437;74;26695;-73
2021/07/24 20:41:46;;;;;;;53.50;40.67;;;;;;;20.35;100.00;100768.48;1927527;74;24121;-72
2021/07/24 20:44:16;;;;;;;53.87;39.73;;;;;;;20.40;100.00;100764.85;1927598;74;24109;-71
2021/07/24 20:46:46;;;;;;;49.93;39.20;;;;;;;20.37;100.00;100768.94;1927590;74;24599;-71
2021/07/24 20:49:26;;;;;;;54.70;41.50;;;;;;;20.32;100.00;100764.36;1927485;74;24110;-72
2021/07/24 20:51:54;;;;;;;52.07;40.17;;;;;;;20.20;100.00;100769.97;1926817;74;24186;-73
2021/07/24 20:54:24;;;;;;;51.33;39.10;;;;;;;20.24;100.00;100765.27;1927554;74;24183;-68
2021/07/24 20:56:54;;;;;;;51.80;40.93;;;;;;;20.23;100.00;100769.87;1927407;74;24171;-71
2021/07/24 20:59:24;;;;;;;48.73;40.13;;;;;;;20.27;100.00;100759.53;1927483;74;24114;-70
2021/07/24 21:01:54;;;;;;;60.17;41.63;;;;;;;20.17;100.00;100759.98;1927521;74;24105;-70
2021/07/24 21:04:24;;;;;;;53.10;40.37;;;;;;;20.18;100.00;100756.83;1927736;74;24552;-72
2021/07/24 21:06:55;;;;;;;53.00;40.93;;;;;;;20.17;100.00;100767.86;1927510;74;24108;-68
2021/07/24 21:09:25;;;;;;;54.80;40.00;;;;;;;20.15;100.00;100759.53;1927519;74;24171;-68
2021/07/24 21:11:55;;;;;;;51.50;38.73;;;;;;;19.95;100.00;100764.91;1927447;74;24191;-68
2021/07/24 21:14:25;;;;;;;50.83;38.83;;;;;;;19.93;100.00;100765.86;1927630;74;24184;-68
2021/07/24 21:16:55;;;;;;;53.30;40.67;;;;;;;19.82;100.00;100768.87;1927611;74;24117;-68
2021/07/24 21:19:25;;;;;;;54.70;40.33;;;;;;;19.79;100.00;100775.80;1927598;74;24110;-72
2021/07/24 21:21:55;;;;;;;51.67;40.87;;;;;;;19.79;100.00;100780.86;1924522;73;24236;-68
2021/07/24 21:24:26;;;;;;;61.27;41.50;;;;;;;19.76;100.00;100781.56;1923056;73;24250;-68
2021/07/24 21:26:56;;;;;;;50.37;39.53;;;;;;;19.74;100.00;100788.11;1923117;74;24134;-71
2021/07/24 21:29:27;;;;;;;50.67;39.67;;;;;;;19.76;100.00;100784.38;1923152;74;24134;-72
2021/07/24 21:31:57;;;;;;;52.57;40.80;;;;;;;19.62;100.00;100788.09;1923119;74;24134;-69
2021/07/24 21:34:27;;;;;;;51.13;40.93;;;;;;;19.63;100.00;100794.55;1922811;74;24825;-69
2021/07/24 21:36:58;;;;;;;54.53;40.70;;;;;;;19.73;100.00;100796.33;1922570;74;24134;-69
2021/07/24 21:39:29;;;;;;;54.53;41.37;;;;;;;19.71;100.00;100803.50;1922568;74;24134;-69
2021/07/24 21:41:59;;;;;;;52.63;42.03;;;;;;;19.44;100.00;100798.70;1922548;74;24116;-71
2021/07/24 21:44:29;;;;;;;53.80;41.57;;;;;;;19.51;100.00;100798.95;1922542;74;24636;-69
2021/07/24 21:46:59;;;;;;;55.10;40.23;;;;;;;19.63;100.00;100792.56;1922544;74;24127;-72
2021/07/24 21:49:29;;;;;;;53.13;40.97;;;;;;;19.64;100.00;100791.98;1922645;74;26629;-71
2021/07/24 21:52:00;;;;;;;55.70;40.43;;;;;;;19.61;100.00;100803.92;1922527;74;24119;-73
2021/07/24 21:54:30;;;;;;;57.80;42.37;;;;;;;19.44;100.00;100803.52;1922520;74;24211;-71